GW3708 Weather Reports


Display with metric or nautical units.
time (UTC)temp
F
wind
direction
speed
MPH
gust
MPH
rain 1hr
in
rain 24hr
in
rain mn
in
humidity
%
barometer
mb
20260504225509 57 236 5.0 9.0 0.00 0.00 0.00 72 1010.3
20260504225006 57 231 5.0 9.0 0.00 0.00 0.00 71 1010.4
20260504224512 57 245 5.0 9.0 0.00 0.00 0.00 71 1010.3
20260504224002 57 246 6.0 9.0 0.00 0.00 0.00 70 1010.4
20260504223503 57 240 5.0 9.0 0.00 0.00 0.00 70 1010.4
20260504223003 57 245 6.0 9.0 0.00 0.00 0.00 70 1010.4
20260504222505 57 233 5.0 9.0 0.00 0.00 0.00 70 1010.4
20260504222002 58 246 5.0 9.0 0.00 0.00 0.00 69 1010.4
20260504221504 58 235 5.0 10.0 0.00 0.00 0.00 69 1010.4
20260504221004 58 239 6.0 10.0 0.00 0.00 0.00 68 1010.5
20260504220502 58 216 5.0 10.0 0.00 0.00 0.00 68 1010.6
20260504220006 58 230 5.0 9.0 0.00 0.00 0.00 67 1010.5
20260504215503 58 240 5.0 9.0 0.00 0.00 0.00 67 1010.5
20260504215009 58 228 5.0 9.0 0.00 0.00 0.00 66 1010.4
20260504214516 58 245 6.0 11.0 0.00 0.00 0.00 65 1010.4
20260504214004 59 223 6.0 11.0 0.00 0.00 0.00 66 1010.3
20260504213509 59 236 5.0 9.0 0.00 0.00 0.00 66 1010.4
20260504213016 59 234 5.0 9.0 0.00 0.00 0.00 66 1010.3
20260504212502 59 238 6.0 10.0 0.00 0.00 0.00 66 1010.2
20260504212004 59 240 5.0 10.0 0.00 0.00 0.00 65 1010.2
20260504211502 59 221 5.0 9.0 0.00 0.00 0.00 63 1010.3
20260504211004 60 227 5.0 9.0 0.00 0.00 0.00 62 1010.3
20260504210503 60 207 4.0 9.0 0.00 0.00 0.00 62 1010.3
20260504210010 60 238 5.0 9.0 0.00 0.00 0.00 63 1010.4
20260504205504 60 243 5.0 8.0 0.00 0.00 0.00 63 1010.4
20260504205002 60 227 4.0 8.0 0.00 0.00 0.00 62 1010.4
20260504204515 61 230 5.0 8.0 0.00 0.00 0.00 62 1010.4
20260504204005 61 242 5.0 8.0 0.00 0.00 0.00 60 1010.3
20260504203503 61 223 5.0 9.0 0.00 0.00 0.00 60 1010.3
20260504203016 61 232 5.0 9.0 0.00 0.00 0.00 59 1010.3
20260504202507 62 246 5.0 8.0 0.00 0.00 0.00 57 1010.3
20260504202007 62 227 5.0 9.0 0.00 0.00 0.00 58 1010.3
20260504201519 62 227 5.0 9.0 0.00 0.00 0.00 57 1010.3
20260504201007 63 229 5.0 9.0 0.00 0.00 0.00 56 1010.3
20260504200503 63 227 5.0 9.0 0.00 0.00 0.00 56 1010.3
20260504200008 63 248 5.0 9.0 0.00 0.00 0.00 56 1010.4
20260504195504 63 229 4.0 8.0 0.00 0.00 0.00 56 1010.4
20260504195007 63 216 5.0 8.0 0.00 0.00 0.00 56 1010.5
20260504194509 63 234 5.0 7.0 0.00 0.00 0.00 57 1010.5
20260504194003 63 235 4.0 8.0 0.00 0.00 0.00 56 1010.5
20260504193503 63 255 5.0 8.0 0.00 0.00 0.00 57 1010.5
20260504193020 63 248 5.0 9.0 0.00 0.00 0.00 56 1010.6
20260504192506 64 227 5.0 9.0 0.00 0.00 0.00 55 1010.5
20260504192010 64 216 5.0 8.0 0.00 0.00 0.00 57 1010.6
20260504191518 64 226 5.0 8.0 0.00 0.00 0.00 56 1010.5
20260504191008 64 244 5.0 7.0 0.00 0.00 0.00 55 1010.6
20260504190507 64 234 4.0 8.0 0.00 0.00 0.00 56 1010.6
20260504190020 64 247 5.0 8.0 0.00 0.00 0.00 55 1010.7
20260504185503 64 250 5.0 9.0 0.00 0.00 0.00 55 1010.8
20260504185002 64 222 5.0 9.0 0.00 0.00 0.00 54 1010.8
20260504184506 64 241 4.0 8.0 0.00 0.00 0.00 55 1010.8
20260504184004 64 234 5.0 8.0 0.00 0.00 0.00 55 1010.9
20260504183503 64 264 5.0 8.0 0.00 0.00 0.00 54 1010.9
20260504183008 64 232 4.0 8.0 0.00 0.00 0.00 54 1011.0
20260504182502 65 226 4.0 7.0 0.00 0.00 0.00 54 1011.0
20260504182010 65 247 4.0 7.0 0.00 0.00 0.00 53 1011.1
20260504181514 65 217 5.0 7.0 0.00 0.00 0.00 53 1011.1
20260504181007 65 254 5.0 7.0 0.00 0.00 0.00 50 1011.1
20260504180509 64 221 5.0 8.0 0.00 0.00 0.00 52 1011.2
20260504180020 64 232 5.0 9.0 0.00 0.00 0.00 52 1011.2
20260504175507 64 218 5.0 9.0 0.00 0.00 0.00 52 1011.2
20260504175008 65 244 4.0 8.0 0.00 0.00 0.00 51 1011.2
20260504174523 65 242 5.0 9.0 0.00 0.00 0.00 51 1011.2
20260504174005 65 236 5.0 9.0 0.00 0.00 0.00 50 1011.2
20260504173503 65 255 5.0 8.0 0.00 0.00 0.00 48 1011.3
20260504173008 65 250 5.0 8.0 0.00 0.00 0.00 50 1011.3
20260504172503 66 244 5.0 8.0 0.00 0.00 0.00 48 1011.3
20260504172006 66 216 5.0 8.0 0.00 0.00 0.00 49 1011.4
20260504171532 66 221 4.0 7.0 0.00 0.00 0.00 48 1011.4
20260504171007 66 235 4.0 7.0 0.00 0.00 0.00 47 1011.5
20260504170506 66 249 4.0 7.0 0.00 0.00 0.00 47 1011.7
20260504151004 67 193 1.0 5.0 0.00 0.00 0.00 44 1012.7
20260504150503 67 268 3.0 5.0 0.00 0.00 0.00 38 1012.7
20260504141010 64 263 2.0 4.0 0.00 0.00 0.00 49 1012.9
20260504140508 63 236 1.0 4.0 0.00 0.00 0.00 47 1012.9
20260504130510 61 290 2.0 5.0 0.00 0.00 0.00 47 1013.5
20260504110509 51 254 1.0 3.0 0.00 0.00 0.00 63 1013.2
20260504100508 47 256 0.0 0.0 0.00 0.00 0.00 73 1013.1
20260504082003 45 250 0.0 0.0 0.00 0.00 0.00 75 1012.5
20260504081524 45 212 0.0 0.0 0.00 0.00 0.00 75 1012.4
20260504081007 45 212 0.0 0.0 0.00 0.00 0.00 76 1012.4
20260504080507 45 234 0.0 0.0 0.00 0.00 0.00 75 1012.4
20260504050512 43 234 0.0 0.0 0.00 0.00 0.00 72 1012.1
20260504045503 43 234 0.0 0.0 0.00 0.00 0.00 72 1012.1
20260504045006 43 234 0.0 0.0 0.00 0.00 0.00 72 1012.2
20260504044524 43 234 0.0 0.0 0.00 0.00 0.00 72 1012.2
20260504044006 43 234 0.0 0.0 0.00 0.00 0.00 71 1012.2
20260504043503 43 234 0.0 0.0 0.00 0.00 0.00 71 1012.1
20260504043004 43 234 0.0 0.0 0.00 0.00 0.00 71 1012.1
20260504042503 43 234 0.0 0.0 0.00 0.00 0.00 72 1012.1
20260504042003 43 234 0.0 0.0 0.00 0.00 0.00 73 1012.0
20260504041505 44 234 0.0 0.0 0.00 0.00 0.00 74 1012.0
20260504041003 44 234 0.0 0.0 0.00 0.00 0.00 74 1012.0
20260504040504 44 234 0.0 0.0 0.00 0.00 0.00 75 1012.0
20260504040009 44 234 0.0 0.0 0.00 0.00 0.00 76 1012.0
20260504035504 45 234 0.0 0.0 0.00 0.00 0.00 76 1012.0
20260504035004 45 234 0.0 0.0 0.00 0.00 0.00 76 1012.0
20260504034512 45 234 0.0 0.0 0.00 0.00 0.00 77 1011.9
20260504034006 46 234 0.0 0.0 0.00 0.00 0.00 76 1011.9
20260504033508 46 234 0.0 0.0 0.00 0.00 0.00 76 1011.8
20260504033021 46 234 0.0 0.0 0.00 0.00 0.00 76 1011.8
20260504032507 46 234 0.0 0.0 0.00 0.00 0.00 76 1011.8
20260504032005 46 234 0.0 0.0 0.00 0.00 0.00 76 1011.8
20260504031504 47 234 0.0 0.0 0.00 0.00 0.00 76 1011.8
20260504031003 47 234 0.0 0.0 0.00 0.00 0.00 75 1011.8
20260504030502 47 234 0.0 0.0 0.00 0.00 0.00 74 1011.7
20260504030004 48 234 0.0 0.0 0.00 0.00 0.00 74 1011.6
20260504025504 48 237 0.0 1.0 0.00 0.00 0.00 73 1011.7
20260504025004 48 237 0.0 2.0 0.00 0.00 0.00 73 1011.7
20260504024509 48 237 1.0 2.0 0.00 0.00 0.00 73 1011.6
20260504024004 48 237 1.0 2.0 0.00 0.00 0.00 73 1011.6
20260504023505 48 237 1.0 2.0 0.00 0.00 0.00 73 1011.6
20260504023016 48 237 1.0 2.0 0.00 0.00 0.00 73 1011.6
20260504022506 47 237 1.0 3.0 0.00 0.00 0.00 73 1011.7
20260504022005 47 225 2.0 3.0 0.00 0.00 0.00 74 1011.6
20260504021519 47 224 2.0 2.0 0.00 0.00 0.00 73 1011.5
20260504021006 47 275 0.0 0.0 0.00 0.00 0.00 73 1011.5
20260504020503 46 275 0.0 0.0 0.00 0.00 0.00 73 1011.5
20260504020007 46 275 0.0 0.0 0.00 0.00 0.00 73 1011.5
20260504015503 45 286 0.0 0.0 0.00 0.00 0.00 73 1011.5
20260504015004 45 292 0.0 0.0 0.00 0.00 0.00 73 1011.5
20260504014508 45 292 0.0 0.0 0.00 0.00 0.00 72 1011.4
20260504014002 45 292 0.0 0.0 0.00 0.00 0.00 71 1011.4
20260504013505 45 292 0.0 0.0 0.00 0.00 0.00 69 1011.3
20260504013012 45 292 0.0 0.0 0.00 0.00 0.00 69 1011.3
20260504012508 45 292 0.0 0.0 0.00 0.00 0.00 67 1011.3
20260504012011 45 292 0.0 0.0 0.00 0.00 0.00 65 1011.2
20260504011518 46 292 0.0 0.0 0.00 0.00 0.00 65 1011.1
20260504011005 46 292 0.0 0.0 0.00 0.00 0.00 63 1011.0
20260504010505 46 292 0.0 0.0 0.00 0.00 0.00 59 1010.9
20260504010022 46 292 0.0 0.0 0.00 0.00 0.00 57 1010.8
20260504005507 46 292 0.0 0.0 0.00 0.00 0.00 56 1010.8
20260504005003 47 292 0.0 0.0 0.00 0.00 0.00 55 1010.8
20260504004503 47 292 0.0 0.0 0.00 0.00 0.00 54 1010.8
20260504004006 47 292 0.0 0.0 0.00 0.00 0.00 53 1010.7
20260504003506 47 292 0.0 0.0 0.00 0.00 0.00 52 1010.6
20260504003008 48 292 0.0 0.0 0.00 0.00 0.00 53 1010.6
20260504002503 48 292 0.0 0.0 0.00 0.00 0.00 54 1010.5
20260504002006 48 292 0.0 0.0 0.00 0.00 0.00 55 1010.4
20260504001514 49 292 0.0 0.0 0.00 0.00 0.00 56 1010.3
20260504001006 49 292 0.0 0.0 0.00 0.00 0.00 56 1010.3
20260504000507 49 292 0.0 0.0 0.00 0.00 0.00 56 1010.3
20260504000018 50 292 0.0 0.0 0.00 0.00 0.00 57 1010.2
20260503235506 50 292 0.0 0.0 0.00 0.00 0.00 57 1010.3
20260503235007 50 292 0.0 1.0 0.00 0.00 0.00 57 1010.3
20260503234534 51 292 0.0 1.0 0.00 0.00 0.00 54 1010.2
20260503234008 51 292 0.0 2.0 0.00 0.00 0.00 56 1010.1
20260503233509 51 292 0.0 2.0 0.00 0.00 0.00 56 1010.1
20260503233007 51 292 1.0 2.0 0.00 0.00 0.00 54 1010.1
20260503232504 51 292 1.0 2.0 0.00 0.00 0.00 55 1010.1
20260503232004 51 292 1.0 2.0 0.00 0.00 0.00 55 1010.0
20260503231508 52 300 1.0 2.0 0.00 0.00 0.00 56 1010.0
20260503231006 52 291 1.0 3.0 0.00 0.00 0.00 56 1010.0
20260503230506 52 304 2.0 3.0 0.00 0.00 0.00 56 1010.0
20260503230016 52 293 1.0 3.0 0.00 0.00 0.00 56 1010.0